Kingman

About
Name: Kingman
Identifier:  IGM/KIGM
Local Time:  20. Aug 06:39 MST
Location
Flights per Day
0 flights
Distance: 277km (172mi)
Punctuality
50% (0 flights per day delayed)
Delay Average: 20 minutes
Current Weather
 19 C (Humidity: 22%)
  4kt (7km/h / 4mph) from 140°
  16km (10 mi.)
 
 METAR KIGM 201251Z AUTO 14004KT 10SM CLR 19/M03 A3004 RMK AO2 SLP098 T01891033

Current Flights

Departures
Number Departure To Airline
Arrivals
Number Arrival From Airline

Current Delays

Departures
N/A
Arrivals
N/A

Destinations

Top Destinations
Airport Flights
per week
Seats
per week
  Phoenix (PHX) 4 - 0 0
  Prescott (PRC) 2 - 0 0
  Chino (CNO) 0 - 0 0
  Sioux City (SUX) 0 - 0 0
  Las Vegas (VGT) 0 - 0 0
  El Monte (EMT) 0 - 0 0
  Las Vegas (HSH) 0 - 0 0
  Las Vegas (LAS) 0 - 0 0
  San Diego (MYF) 0 - 0 0

Airlines & Planes

Top Airlines
Airline Flights
per Day
Seats
per Day
  Ameriflight 0 -
Jet Charter Inc ( Franklin Lakes Nj ) 0 -
  Novair 0 -
  Nolinor Aviation 0 -
  National Airlines 0 -
Nordwind Airlines 0 -
  Flybe Nordic 0 -
Top Plane Types
Model Flights Seats
Beech 1900D 0.8/day - 0
Beech C-99 Airliner 0.1/day - 0
Cirrus SR22 0.1/day - 0
Beech B200 Super King Air 0.1/day - 0
Cessna C208 0.0/day - 0
Embraer ERJ145 0.0/day - 0
Cessna C172 0.0/day - 0